createdAt,value
2022-09-28T00:01:19.380Z,99692.83
2022-09-28T00:03:49.443Z,99690.16
2022-09-28T00:06:21.374Z,99686.15
2022-09-28T00:08:52.139Z,99681.10
2022-09-28T00:11:22.500Z,99680.10
2022-09-28T00:13:52.581Z,99673.64
2022-09-28T00:16:24.277Z,99670.98
2022-09-28T00:18:53.880Z,99677.12
2022-09-28T00:21:24.367Z,99671.15
2022-09-28T00:24:13.093Z,99667.21
2022-09-28T00:26:46.255Z,99661.55
2022-09-28T00:29:29.201Z,99658.66
2022-09-28T00:32:02.573Z,99661.23
2022-09-28T00:34:34.895Z,99657.55
2022-09-28T00:37:04.104Z,99654.37
2022-09-28T00:39:32.188Z,99653.98
2022-09-28T00:42:00.142Z,99653.40
2022-09-28T00:44:37.307Z,99651.06
2022-09-28T00:47:24.636Z,99645.73
2022-09-28T00:49:56.195Z,99649.16
2022-09-28T00:52:36.239Z,99651.68
2022-09-28T00:55:08.763Z,99646.74
2022-09-28T00:57:39.752Z,99642.44
2022-09-28T01:00:08.517Z,99640.76
2022-09-28T01:02:36.713Z,99642.58
2022-09-28T01:05:07.084Z,99643.46
2022-09-28T01:07:36.010Z,99652.40
2022-09-28T01:10:06.057Z,99651.81
2022-09-28T01:12:34.090Z,99650.33
2022-09-28T01:15:03.831Z,99647.59
2022-09-28T01:17:58.532Z,99639.03
2022-09-28T01:21:07.346Z,99636.66
2022-09-28T01:23:47.574Z,99635.13
2022-09-28T01:26:46.634Z,99639.09
2022-09-28T01:29:33.717Z,99643.27
2022-09-28T01:32:24.041Z,99636.41
2022-09-28T01:35:06.705Z,99631.11
2022-09-28T01:38:03.471Z,99630.00
2022-09-28T01:40:33.763Z,99628.90
2022-09-28T01:43:08.897Z,99629.55
2022-09-28T01:45:50.861Z,99633.45
2022-09-28T01:48:30.048Z,99634.56
2022-09-28T01:51:02.153Z,99633.95
2022-09-28T01:53:39.400Z,99631.77
2022-09-28T01:56:34.509Z,99630.48
2022-09-28T01:59:08.227Z,99628.14
2022-09-28T02:01:47.180Z,99626.69
2022-09-28T02:04:21.880Z,99622.59
2022-09-28T02:07:01.400Z,99620.20
2022-09-28T02:09:44.626Z,99622.02
2022-09-28T02:12:17.813Z,99626.50
2022-09-28T02:14:49.168Z,99624.16
2022-09-28T02:17:17.371Z,99623.20
2022-09-28T02:19:48.337Z,99621.94
2022-09-28T02:22:26.088Z,99619.34
2022-09-28T02:25:02.052Z,99616.92
2022-09-28T02:27:37.630Z,99612.21
2022-09-28T02:30:33.935Z,99606.64
2022-09-28T02:33:26.172Z,99611.55
2022-09-28T02:35:54.754Z,99617.73
2022-09-28T02:38:23.675Z,99619.36
2022-09-28T02:41:08.508Z,99628.63
2022-09-28T02:44:10.683Z,99629.84
2022-09-28T02:46:48.067Z,99626.52
2022-09-28T02:49:24.354Z,99627.91
2022-09-28T02:52:11.854Z,99623.28
2022-09-28T02:54:52.214Z,99621.12
2022-09-28T02:57:35.285Z,99623.32
2022-09-28T03:00:09.207Z,99627.45
2022-09-28T03:02:43.132Z,99628.40
2022-09-28T03:05:15.857Z,99623.74
2022-09-28T03:08:16.160Z,99624.33
2022-09-28T03:11:07.883Z,99626.60
2022-09-28T03:13:37.282Z,99631.52
2022-09-28T03:16:16.949Z,99631.86
2022-09-28T03:18:46.634Z,99635.55
2022-09-28T03:21:15.756Z,99637.64
2022-09-28T03:23:43.791Z,99636.61
2022-09-28T03:26:12.941Z,99632.80
2022-09-28T03:28:41.246Z,99632.67
2022-09-28T03:31:11.336Z,99629.20
2022-09-28T03:33:39.289Z,99628.52
2022-09-28T03:36:09.644Z,99626.25
2022-09-28T03:38:37.664Z,99625.90
2022-09-28T03:41:07.699Z,99624.14
2022-09-28T03:43:36.759Z,99621.35
2022-09-28T03:46:05.655Z,99617.50
2022-09-28T03:48:38.221Z,99620.62
2022-09-28T03:51:09.341Z,99613.99
2022-09-28T03:53:37.955Z,99611.39
2022-09-28T03:56:12.009Z,99604.61
2022-09-28T03:58:40.544Z,99600.08
2022-09-28T04:01:16.397Z,99593.98
2022-09-28T04:03:46.881Z,99590.67
2022-09-28T04:06:15.001Z,99586.13
2022-09-28T04:08:43.585Z,99582.45
2022-09-28T04:11:12.187Z,99580.20
2022-09-28T04:13:40.229Z,99582.30
2022-09-28T04:16:11.846Z,99580.59
2022-09-28T04:18:42.822Z,99582.90
2022-09-28T04:21:33.488Z,99585.16
2022-09-28T04:24:06.106Z,99586.02
2022-09-28T04:26:34.130Z,99586.54
2022-09-28T04:29:17.702Z,99587.41
2022-09-28T04:32:06.289Z,99582.60
2022-09-28T04:34:40.639Z,99579.68
2022-09-28T04:37:11.614Z,99576.53
2022-09-28T04:39:44.972Z,99580.77
2022-09-28T04:42:17.332Z,99578.25
2022-09-28T04:44:46.065Z,99573.92
2022-09-28T04:47:14.345Z,99569.91
2022-09-28T04:50:00.840Z,99573.38
2022-09-28T04:52:37.964Z,99571.81
2022-09-28T04:55:06.808Z,99567.61
2022-09-28T04:57:35.852Z,99564.30
2022-09-28T05:00:04.833Z,99566.73
2022-09-28T05:02:35.583Z,99564.80
2022-09-28T05:05:23.988Z,99560.79
2022-09-28T05:08:09.662Z,99564.83
2022-09-28T05:10:40.601Z,99562.78
2022-09-28T05:13:09.998Z,99566.42
2022-09-28T05:15:39.822Z,99567.63
2022-09-28T05:18:08.951Z,99567.14
2022-09-28T05:20:48.857Z,99566.61
2022-09-28T05:23:17.340Z,99564.49
2022-09-28T05:25:46.057Z,99556.10
2022-09-28T05:28:25.440Z,99557.98
2022-09-28T05:31:19.413Z,99560.39
2022-09-28T05:34:13.823Z,99561.59
2022-09-28T05:36:42.987Z,99561.58
2022-09-28T05:39:10.905Z,99557.85
2022-09-28T05:41:38.971Z,99560.70
2022-09-28T05:44:06.932Z,99561.16
2022-09-28T05:46:36.226Z,99560.46
2022-09-28T05:49:04.405Z,99560.58
2022-09-28T05:51:32.379Z,99560.20
2022-09-28T05:54:05.389Z,99556.73
2022-09-28T05:56:34.326Z,99557.61
2022-09-28T05:59:06.270Z,99557.46
2022-09-28T06:01:34.590Z,99557.31
2022-09-28T06:04:03.578Z,99557.69
2022-09-28T06:06:32.461Z,99556.80
2022-09-28T06:09:00.413Z,99559.06
2022-09-28T06:12:00.629Z,99558.15
2022-09-28T06:14:36.770Z,99557.52
2022-09-28T06:17:05.354Z,99560.33
2022-09-28T06:19:33.467Z,99555.80
2022-09-28T06:22:07.275Z,99557.34
2022-09-28T06:24:43.743Z,99560.34
2022-09-28T06:27:11.715Z,99553.75
2022-09-28T06:29:39.780Z,99555.48
2022-09-28T06:32:07.878Z,99557.56
2022-09-28T06:34:37.558Z,99557.21
2022-09-28T06:37:05.545Z,99558.13
2022-09-28T06:39:36.478Z,99559.94
2022-09-28T06:42:05.177Z,99557.23
2022-09-28T06:44:59.330Z,99560.56
2022-09-28T06:47:45.043Z,99562.11
2022-09-28T06:50:43.097Z,99559.64
2022-09-28T06:53:28.591Z,99553.83
2022-09-28T06:56:00.714Z,99553.80
2022-09-28T06:58:29.078Z,99550.44
2022-09-28T07:00:59.587Z,99548.30
2022-09-28T07:03:29.797Z,99549.46
2022-09-28T07:06:21.237Z,99552.02
2022-09-28T07:09:30.751Z,99554.60
2022-09-28T07:12:14.239Z,99552.63
2022-09-28T07:14:59.024Z,99552.79
2022-09-28T07:17:29.363Z,99552.23
2022-09-28T07:20:08.487Z,99553.77
2022-09-28T07:22:43.823Z,99556.61
2022-09-28T07:25:18.718Z,99558.29
2022-09-28T07:28:05.535Z,99563.64
2022-09-28T07:30:59.922Z,99559.73
2022-09-28T07:33:51.456Z,99554.16
2022-09-28T07:36:39.208Z,99552.03
2022-09-28T07:39:07.187Z,99551.65
2022-09-28T07:41:36.102Z,99551.61
2022-09-28T07:44:06.782Z,99549.35
2022-09-28T07:46:39.975Z,99548.32
2022-09-28T07:49:19.545Z,99548.52
2022-09-28T07:52:11.214Z,99547.45
2022-09-28T07:54:52.888Z,99547.21
2022-09-28T07:57:47.213Z,99548.53
2022-09-28T08:00:23.645Z,99545.67
2022-09-28T08:02:51.855Z,99541.88
2022-09-28T08:05:24.728Z,99539.53
2022-09-28T08:07:53.424Z,99537.99
2022-09-28T08:10:22.004Z,99532.60
2022-09-28T08:13:06.485Z,99539.05
2022-09-28T08:15:37.193Z,99544.33
2022-09-28T08:18:18.193Z,99544.74
2022-09-28T08:21:05.323Z,99545.70
2022-09-28T08:23:33.312Z,99547.70
2022-09-28T08:26:01.314Z,99552.87
2022-09-28T08:28:29.453Z,99558.36
2022-09-28T08:31:03.994Z,99561.19
2022-09-28T08:33:32.014Z,99561.04
2022-09-28T08:36:18.575Z,99553.90
2022-09-28T08:39:09.885Z,99559.30
2022-09-28T08:42:22.268Z,99560.54
2022-09-28T08:45:23.042Z,99559.96
2022-09-28T08:48:25.479Z,99560.72
2022-09-28T08:51:31.176Z,99567.91
2022-09-28T08:54:41.804Z,99565.89
2022-09-28T08:57:25.746Z,99566.11
2022-09-28T08:59:57.130Z,99565.48
2022-09-28T09:02:39.840Z,99562.05
2022-09-28T09:05:25.119Z,99563.84
2022-09-28T09:08:04.154Z,99561.70
2022-09-28T09:10:38.231Z,99560.06
2022-09-28T09:13:24.494Z,99558.60
2022-09-28T09:16:19.178Z,99559.30
2022-09-28T09:19:17.540Z,99561.58
2022-09-28T09:22:17.442Z,99565.15
2022-09-28T09:24:51.090Z,99567.35
2022-09-28T09:27:21.062Z,99569.83
2022-09-28T09:30:01.963Z,99568.91
2022-09-28T09:32:43.081Z,99570.45
2022-09-28T09:35:32.274Z,99566.11
2022-09-28T09:38:36.018Z,99567.94
2022-09-28T09:41:47.095Z,99566.08
2022-09-28T09:45:18.205Z,99563.36
2022-09-28T09:48:10.694Z,99564.17
2022-09-28T09:50:48.548Z,99566.34
2022-09-28T09:53:46.114Z,99571.26
2022-09-28T09:56:26.058Z,99573.17
2022-09-28T09:59:24.242Z,99577.20
2022-09-28T10:02:24.195Z,99583.59
2022-09-28T10:05:05.127Z,99588.96
2022-09-28T10:07:43.544Z,99593.59
2022-09-28T10:10:18.219Z,99596.34
2022-09-28T10:12:51.353Z,99594.39
2022-09-28T10:15:25.055Z,99598.74
2022-09-28T10:18:14.959Z,99601.41
2022-09-28T10:21:02.268Z,99600.07
2022-09-28T10:23:46.038Z,99601.38
2022-09-28T10:26:25.120Z,99602.06
2022-09-28T10:29:04.361Z,99600.52
2022-09-28T10:31:42.785Z,99599.51
2022-09-28T10:34:30.096Z,99600.14
2022-09-28T10:37:04.308Z,99601.00
2022-09-28T10:39:53.594Z,99606.71
2022-09-28T10:42:31.884Z,99608.05
2022-09-28T10:45:20.331Z,99613.02
2022-09-28T10:47:49.738Z,99613.55
2022-09-28T10:50:27.623Z,99617.03
2022-09-28T10:53:16.083Z,99619.77
2022-09-28T10:56:27.463Z,99616.42
2022-09-28T10:59:00.522Z,99619.83
2022-09-28T11:01:42.406Z,99618.88
2022-09-28T11:04:22.185Z,99619.70
2022-09-28T11:06:51.599Z,99618.88
2022-09-28T11:09:31.174Z,99617.52
2022-09-28T11:12:06.988Z,99622.31
2022-09-28T11:14:42.168Z,99620.31
2022-09-28T11:17:40.093Z,99620.72
2022-09-28T11:20:29.569Z,99615.48
2022-09-28T11:23:18.673Z,99619.44
2022-09-28T11:26:02.708Z,99619.26
2022-09-28T11:28:33.795Z,99623.98
2022-09-28T11:31:08.059Z,99628.98
2022-09-28T11:34:31.085Z,99625.16
2022-09-28T11:37:09.833Z,99626.63
2022-09-28T11:39:53.246Z,99622.96
2022-09-28T11:42:47.014Z,99619.27
2022-09-28T11:45:25.785Z,99622.81
2022-09-28T11:48:01.141Z,99622.57
2022-09-28T11:50:36.089Z,99620.86
2022-09-28T11:53:15.543Z,99623.38
2022-09-28T11:56:16.488Z,99624.22
2022-09-28T11:58:51.327Z,99619.78
2022-09-28T12:01:21.764Z,99623.77
2022-09-28T12:04:27.084Z,99623.73
2022-09-28T12:07:08.777Z,99624.44
2022-09-28T12:10:04.481Z,99623.44
2022-09-28T12:12:40.003Z,99623.84
2022-09-28T12:15:24.130Z,99626.58
2022-09-28T12:18:12.835Z,99627.85
2022-09-28T12:20:47.536Z,99626.31
2022-09-28T12:23:36.319Z,99627.64
2022-09-28T12:26:11.082Z,99625.31
2022-09-28T12:28:48.753Z,99623.38
2022-09-28T12:31:20.320Z,99627.47
2022-09-28T12:33:51.075Z,99627.46
2022-09-28T12:36:31.507Z,99627.83
2022-09-28T12:39:47.251Z,99623.52
2022-09-28T12:42:39.294Z,99622.42
2022-09-28T12:45:07.280Z,99617.03
2022-09-28T12:47:44.365Z,99619.02
2022-09-28T12:50:39.584Z,99622.36
2022-09-28T12:53:15.086Z,99622.11
2022-09-28T12:56:09.412Z,99622.41
2022-09-28T12:58:52.415Z,99624.63
2022-09-28T13:01:57.251Z,99621.99
2022-09-28T13:04:39.262Z,99622.62
2022-09-28T13:07:18.480Z,99620.65
2022-09-28T13:09:46.336Z,99627.66
2022-09-28T13:12:19.436Z,99627.41
2022-09-28T13:15:23.725Z,99627.69
2022-09-28T13:18:01.987Z,99628.64
2022-09-28T13:20:58.382Z,99628.25
2022-09-28T13:23:36.191Z,99629.89
2022-09-28T13:26:17.372Z,99629.88
2022-09-28T13:28:47.394Z,99631.88
2022-09-28T13:31:22.953Z,99630.95
2022-09-28T13:33:53.059Z,99630.48
2022-09-28T13:36:33.144Z,99636.10
2022-09-28T13:39:01.969Z,99634.49
2022-09-28T13:41:36.710Z,99638.66
2022-09-28T13:44:21.140Z,99640.85
2022-09-28T13:46:51.742Z,99641.58
2022-09-28T13:49:50.699Z,99647.66
2022-09-28T13:52:49.828Z,99645.82
2022-09-28T13:55:36.320Z,99646.50
2022-09-28T13:58:14.874Z,99646.06
2022-09-28T14:01:04.694Z,99645.93
2022-09-28T14:03:42.356Z,99648.69
2022-09-28T14:06:33.493Z,99647.89
2022-09-28T14:09:13.585Z,99652.30
2022-09-28T14:12:04.418Z,99651.50
2022-09-28T14:14:48.822Z,99655.33
2022-09-28T14:17:50.375Z,99656.30
2022-09-28T14:20:22.348Z,99657.13
2022-09-28T14:23:32.278Z,99655.98
2022-09-28T14:26:26.242Z,99657.27
2022-09-28T14:29:19.586Z,99658.52
2022-09-28T14:31:47.697Z,99656.43
2022-09-28T14:34:31.540Z,99658.16
2022-09-28T14:37:21.317Z,99657.85
2022-09-28T14:40:08.533Z,99663.73
2022-09-28T14:42:36.618Z,99660.83
2022-09-28T14:45:06.785Z,99664.38
2022-09-28T14:47:44.202Z,99672.30
2022-09-28T14:50:39.311Z,99675.85
2022-09-28T14:53:15.208Z,99680.11
2022-09-28T14:55:51.223Z,99680.31
2022-09-28T14:58:26.794Z,99684.42
2022-09-28T15:01:02.925Z,99689.38
2022-09-28T15:03:34.362Z,99689.98
2022-09-28T15:06:02.749Z,99692.05
2022-09-28T15:08:40.175Z,99695.84
2022-09-28T15:11:18.489Z,99698.73
2022-09-28T15:13:46.864Z,99698.85
2022-09-28T15:16:17.719Z,99696.90
2022-09-28T15:18:51.473Z,99694.34
2022-09-28T15:21:20.771Z,99694.42
2022-09-28T15:23:49.867Z,99699.42
2022-09-28T15:26:31.757Z,99696.49
2022-09-28T15:29:03.416Z,99697.45
2022-09-28T15:31:36.278Z,99700.84
2022-09-28T15:34:22.933Z,99700.89
2022-09-28T15:36:51.034Z,99704.63
2022-09-28T15:39:23.514Z,99703.79
2022-09-28T15:41:52.054Z,99708.91
2022-09-28T15:44:37.310Z,99709.01
2022-09-28T15:47:25.689Z,99711.48
2022-09-28T15:49:58.721Z,99709.83
2022-09-28T15:52:47.158Z,99714.32
2022-09-28T15:55:34.596Z,99719.56
2022-09-28T15:58:06.075Z,99717.42
2022-09-28T16:00:35.196Z,99716.28
2022-09-28T16:03:05.726Z,99717.59
2022-09-28T16:05:48.157Z,99718.36
2022-09-28T16:08:21.536Z,99716.68
2022-09-28T16:11:07.065Z,99718.82
2022-09-28T16:13:37.093Z,99717.63
2022-09-28T16:16:05.360Z,99720.05
2022-09-28T16:18:40.586Z,99725.98
2022-09-28T16:21:24.436Z,99725.85
2022-09-28T16:23:58.270Z,99725.02
2022-09-28T16:26:33.477Z,99726.96
2022-09-28T16:29:25.972Z,99728.91
2022-09-28T16:31:55.576Z,99727.61
2022-09-28T16:34:28.171Z,99723.89
2022-09-28T16:36:56.146Z,99726.77
2022-09-28T16:39:25.166Z,99725.01
2022-09-28T16:41:59.671Z,99727.15
2022-09-28T16:44:30.172Z,99727.17
2022-09-28T16:47:00.455Z,99724.73
2022-09-28T16:49:31.771Z,99728.64
2022-09-28T16:52:01.402Z,99727.80
2022-09-28T16:54:48.442Z,99730.95
2022-09-28T16:57:16.680Z,99727.02
2022-09-28T16:59:44.646Z,99728.80
2022-09-28T17:02:42.218Z,99729.55
2022-09-28T17:05:07.686Z,99729.04
2022-09-28T17:07:36.107Z,99735.09
2022-09-28T17:10:50.106Z,99734.90
2022-09-28T17:13:31.547Z,99735.34
2022-09-28T17:16:01.871Z,99733.88
2022-09-28T17:18:33.486Z,99737.96
2022-09-28T17:21:04.342Z,99736.35
2022-09-28T17:23:32.786Z,99740.63
2022-09-28T17:26:01.822Z,99739.14
2022-09-28T17:28:33.701Z,99742.55
2022-09-28T17:31:02.752Z,99740.92
2022-09-28T17:33:31.662Z,99739.62
2022-09-28T17:36:01.936Z,99730.40
2022-09-28T17:38:30.721Z,99731.56
2022-09-28T17:40:58.780Z,99731.30
2022-09-28T17:43:27.322Z,99736.80
2022-09-28T17:45:55.418Z,99736.01
2022-09-28T17:48:24.509Z,99733.88
2022-09-28T17:50:52.440Z,99731.60
2022-09-28T17:53:20.370Z,99733.45
2022-09-28T17:55:48.301Z,99730.87
2022-09-28T17:58:21.398Z,99733.59
2022-09-28T18:00:52.404Z,99730.98
2022-09-28T18:03:25.017Z,99730.09
2022-09-28T18:06:06.727Z,99730.73
2022-09-28T18:08:35.081Z,99730.17
2022-09-28T18:11:03.048Z,99734.13
2022-09-28T18:13:31.006Z,99737.34
2022-09-28T18:15:59.235Z,99740.40
2022-09-28T18:18:27.440Z,99742.25
2022-09-28T18:20:55.612Z,99742.99
2022-09-28T18:23:23.542Z,99743.06
2022-09-28T18:25:51.426Z,99742.61
2022-09-28T18:28:19.438Z,99744.04
2022-09-28T18:30:47.443Z,99741.60
2022-09-28T18:33:15.762Z,99742.11
2022-09-28T18:35:52.332Z,99744.02
2022-09-28T18:38:20.809Z,99747.85
2022-09-28T18:40:48.765Z,99747.32
2022-09-28T18:43:16.867Z,99748.36
2022-09-28T18:45:44.825Z,99748.90
2022-09-28T18:48:12.888Z,99749.27
2022-09-28T18:50:44.033Z,99750.17
2022-09-28T18:53:12.064Z,99749.85
2022-09-28T18:55:43.050Z,99748.61
2022-09-28T18:58:11.875Z,99746.70
2022-09-28T19:00:41.688Z,99745.29
2022-09-28T19:03:12.256Z,99744.34
2022-09-28T19:05:43.550Z,99748.42
2022-09-28T19:08:11.787Z,99749.57
2022-09-28T19:10:39.772Z,99749.66
2022-09-28T19:13:07.822Z,99750.13
2022-09-28T19:15:36.073Z,99751.84
2022-09-28T19:18:04.459Z,99748.14
2022-09-28T19:20:33.676Z,99750.32
2022-09-28T19:23:02.321Z,99751.62
2022-09-28T19:25:30.840Z,99748.39
2022-09-28T19:27:58.920Z,99749.69
2022-09-28T19:30:26.911Z,99748.92
2022-09-28T19:32:54.798Z,99748.35
2022-09-28T19:35:22.915Z,99748.43
2022-09-28T19:37:51.580Z,99749.38
2022-09-28T19:40:19.688Z,99743.41
2022-09-28T19:42:47.816Z,99743.54
2022-09-28T19:45:15.948Z,99743.14
2022-09-28T19:47:43.848Z,99736.13
2022-09-28T19:50:11.827Z,99731.01
2022-09-28T19:52:39.779Z,99727.29
2022-09-28T19:55:08.421Z,99727.58
2022-09-28T19:57:36.430Z,99732.45
2022-09-28T20:00:05.064Z,99737.45
2022-09-28T20:02:34.545Z,99738.62
2022-09-28T20:05:03.149Z,99741.75
2022-09-28T20:07:33.439Z,99743.98
2022-09-28T20:10:01.398Z,99747.06
2022-09-28T20:12:29.412Z,99754.16
2022-09-28T20:14:57.987Z,99756.23
2022-09-28T20:17:25.948Z,99759.14
2022-09-28T20:19:53.924Z,99758.66
2022-09-28T20:22:21.893Z,99760.56
2022-09-28T20:24:49.820Z,99762.13
2022-09-28T20:27:17.765Z,99764.54
2022-09-28T20:29:45.662Z,99768.19
2022-09-28T20:32:14.330Z,99770.61
2022-09-28T20:34:42.345Z,99771.80
2022-09-28T20:37:12.574Z,99770.37
2022-09-28T20:39:44.777Z,99770.04
2022-09-28T20:42:15.608Z,99769.73
2022-09-28T20:44:44.037Z,99772.75
2022-09-28T20:47:12.018Z,99773.84
2022-09-28T20:49:39.998Z,99773.48
2022-09-28T20:52:07.960Z,99777.27
2022-09-28T20:54:36.128Z,99776.08
2022-09-28T20:57:17.569Z,99781.02
2022-09-28T20:59:54.369Z,99785.59
2022-09-28T21:02:22.997Z,99785.30
2022-09-28T21:04:51.141Z,99787.15
2022-09-28T21:07:19.387Z,99788.80
2022-09-28T21:09:47.318Z,99792.52
2022-09-28T21:12:15.559Z,99793.98
2022-09-28T21:14:43.841Z,99799.57
2022-09-28T21:17:11.865Z,99801.85
2022-09-28T21:19:39.868Z,99802.41
2022-09-28T21:22:07.841Z,99805.77
2022-09-28T21:24:35.835Z,99807.89
2022-09-28T21:27:04.182Z,99809.48
2022-09-28T21:29:32.090Z,99814.88
2022-09-28T21:32:00.325Z,99814.40
2022-09-28T21:34:28.291Z,99817.70
2022-09-28T21:36:56.334Z,99819.39
2022-09-28T21:39:24.192Z,99820.08
2022-09-28T21:41:52.144Z,99822.86
2022-09-28T21:44:20.171Z,99821.65
2022-09-28T21:46:48.269Z,99827.63
2022-09-28T21:49:16.312Z,99825.42
2022-09-28T21:51:45.404Z,99825.96
2022-09-28T21:54:13.967Z,99828.76
2022-09-28T21:56:41.832Z,99828.40
2022-09-28T21:59:09.815Z,99833.27
2022-09-28T22:01:37.899Z,99836.22
2022-09-28T22:04:06.061Z,99839.33
2022-09-28T22:06:34.228Z,99839.47
2022-09-28T22:09:02.307Z,99842.03
2022-09-28T22:11:30.283Z,99847.03
2022-09-28T22:14:00.236Z,99844.39
2022-09-28T22:16:31.133Z,99849.99
2022-09-28T22:18:59.692Z,99845.17
2022-09-28T22:21:34.692Z,99847.81
2022-09-28T22:24:05.163Z,99842.42
2022-09-28T22:26:36.008Z,99844.52
2022-09-28T22:29:06.918Z,99846.07
2022-09-28T22:31:37.798Z,99844.34
2022-09-28T22:34:06.767Z,99845.73
2022-09-28T22:36:35.040Z,99842.95
2022-09-28T22:39:03.629Z,99841.23
2022-09-28T22:41:32.291Z,99840.25
2022-09-28T22:44:00.542Z,99837.84
2022-09-28T22:46:32.025Z,99838.73
2022-09-28T22:49:00.524Z,99840.47
2022-09-28T22:51:30.025Z,99839.13
2022-09-28T22:53:58.795Z,99837.23
2022-09-28T22:56:27.428Z,99836.01
2022-09-28T22:58:55.458Z,99835.13
2022-09-28T23:01:25.990Z,99835.52
2022-09-28T23:03:55.698Z,99835.52
2022-09-28T23:06:26.192Z,99834.65
2022-09-28T23:08:54.155Z,99834.30
2022-09-28T23:11:22.277Z,99829.59
2022-09-28T23:13:51.507Z,99830.10
2022-09-28T23:16:20.124Z,99832.20
2022-09-28T23:18:49.408Z,99827.86
2022-09-28T23:21:19.459Z,99825.96
2022-09-28T23:23:52.624Z,99822.48
2022-09-28T23:26:26.889Z,99822.65
2022-09-28T23:28:55.497Z,99824.05
2022-09-28T23:31:26.837Z,99820.04
2022-09-28T23:34:00.384Z,99818.33
2022-09-28T23:36:29.094Z,99819.56
2022-09-28T23:38:58.076Z,99815.22
2022-09-28T23:41:26.112Z,99815.04
2022-09-28T23:43:54.074Z,99813.09
2022-09-28T23:46:22.159Z,99816.19
2022-09-28T23:48:50.915Z,99814.27
2022-09-28T23:51:18.902Z,99814.80
2022-09-28T23:53:47.034Z,99815.84
2022-09-28T23:56:15.189Z,99812.38
2022-09-28T23:58:43.252Z,99811.70
